Time;durP1;ratioP1;P1;durP2;ratioP2;P2;SDS_P1;SDS_P2;PMS_P1;PMS_P2;Temp;Humidity;BMP_temperature;BMP_pressure;BME280_temperature;BME280_humidity;BME280_pressure;Samples;Min_cycle;Max_cycle;Signal;HPM_P1;HPM_P2
2024/04/04 00:01:48;;;;;;;2.03;1.50;;;11.50;99.90;;;;;;4997927;28;20517;-62
2024/04/04 00:04:16;;;;;;;1.70;1.60;;;11.50;99.90;;;;;;4997922;28;20469;-62
2024/04/04 00:06:43;;;;;;;2.90;1.47;;;11.50;99.90;;;;;;4999527;28;20454;-62
2024/04/04 00:09:09;;;;;;;2.30;1.77;;;11.50;99.90;;;;;;4998457;28;20565;-62
2024/04/04 00:11:38;;;;;;;3.57;1.90;;;11.50;99.90;;;;;;5009145;28;20986;-62
2024/04/04 00:14:05;;;;;;;1.67;1.20;;;11.50;99.90;;;;;;4998189;28;20498;-61
2024/04/04 00:16:34;;;;;;;2.67;1.50;;;11.60;99.90;;;;;;5000738;28;20563;-61
2024/04/04 00:19:00;;;;;;;2.03;1.40;;;11.60;99.90;;;;;;5014248;28;20446;-62
2024/04/04 00:21:27;;;;;;;2.33;1.90;;;11.70;99.90;;;;;;5008968;28;20442;-61
2024/04/04 00:23:53;;;;;;;3.60;1.60;;;11.60;99.90;;;;;;5000502;28;20540;-62
2024/04/04 00:26:21;;;;;;;3.40;1.70;;;11.60;99.90;;;;;;4998955;28;20442;-62
2024/04/04 00:28:51;;;;;;;2.80;1.37;;;11.60;99.90;;;;;;4998587;28;20524;-62
2024/04/04 00:31:18;;;;;;;2.13;1.57;;;11.60;99.90;;;;;;4997935;28;20856;-61
2024/04/04 00:33:45;;;;;;;7.30;1.60;;;11.60;99.90;;;;;;4998470;28;20466;-62
2024/04/04 00:36:12;;;;;;;1.87;1.30;;;11.60;99.90;;;;;;5002937;28;20450;-61
2024/04/04 00:38:38;;;;;;;2.80;2.10;;;11.60;99.90;;;;;;5009930;28;20438;-62
2024/04/04 00:41:05;;;;;;;1.77;1.30;;;11.60;99.90;;;;;;4999988;28;20490;-62
2024/04/04 00:43:31;;;;;;;2.67;1.80;;;11.60;99.90;;;;;;4999311;28;20533;-62
2024/04/04 00:46:00;;;;;;;4.20;1.60;;;11.50;99.90;;;;;;4998818;28;20526;-60
2024/04/04 00:48:26;;;;;;;1.83;1.30;;;11.60;99.90;;;;;;4998109;28;20262;-60
2024/04/04 00:50:54;;;;;;;2.90;1.70;;;11.60;99.90;;;;;;4998109;28;20504;-62
2024/04/04 00:58:32;;;;;;;5.00;1.93;;;11.70;99.90;;;;;;4823770;26;20475;-61
2024/04/04 01:00:59;;;;;;;2.77;1.70;;;11.60;99.90;;;;;;5057864;28;20463;-61
2024/04/04 01:03:33;;;;;;;1.77;1.50;;;11.60;99.90;;;;;;5057569;28;20522;-61
2024/04/04 01:06:02;;;;;;;2.57;1.43;;;11.70;99.90;;;;;;5058378;28;20953;-59
2024/04/04 01:08:29;;;;;;;2.80;1.53;;;11.70;99.90;;;;;;5058825;28;20475;-61
2024/04/04 01:11:01;;;;;;;2.87;1.77;;;11.70;99.90;;;;;;5059063;28;20458;-61
2024/04/04 01:13:28;;;;;;;2.90;1.33;;;11.70;99.90;;;;;;5053545;28;20436;-59
2024/04/04 01:15:54;;;;;;;2.73;2.07;;;11.70;99.90;;;;;;5055192;28;20961;-60
2024/04/04 01:18:25;;;;;;;1.77;1.43;;;11.70;99.90;;;;;;5058216;28;20514;-61
2024/04/04 01:20:51;;;;;;;1.87;1.50;;;11.60;99.90;;;;;;5057834;28;20432;-59
2024/04/04 01:23:18;;;;;;;1.93;1.20;;;11.60;99.90;;;;;;5056504;28;20530;-62
2024/04/04 01:25:45;;;;;;;1.70;1.60;;;11.60;99.90;;;;;;5056880;28;20815;-62
2024/04/04 01:28:12;;;;;;;2.20;1.40;;;11.50;99.90;;;;;;5057003;28;20574;-61
2024/04/04 01:30:38;;;;;;;5.10;1.80;;;11.50;99.90;;;;;;5056812;28;20477;-62
2024/04/04 01:33:07;;;;;;;2.20;1.60;;;11.50;99.90;;;;;;5056421;28;20948;-61
2024/04/04 01:36:15;;;;;;;2.10;1.50;;;11.50;99.90;;;;;;5134225;22;20601;-60
2024/04/04 01:38:41;;;;;;;1.83;1.37;;;11.30;99.90;;;;;;4994897;28;20990;-61
2024/04/04 01:41:09;;;;;;;2.03;1.83;;;11.50;99.90;;;;;;5029652;28;20444;-59
2024/04/04 01:43:35;;;;;;;1.73;1.37;;;11.50;99.90;;;;;;5034270;28;21019;-61
2024/04/04 01:46:01;;;;;;;1.73;1.43;;;11.50;99.90;;;;;;5029646;28;20544;-60
2024/04/04 01:48:28;;;;;;;3.90;1.63;;;11.50;99.90;;;;;;5035716;28;20535;-59
2024/04/04 01:50:54;;;;;;;2.50;1.80;;;11.60;99.90;;;;;;5036156;28;20865;-59
2024/04/04 01:53:21;;;;;;;2.50;1.63;;;11.50;99.90;;;;;;5035869;28;20528;-63
2024/04/04 01:55:47;;;;;;;3.20;1.70;;;11.60;99.90;;;;;;5035937;28;21063;-60
2024/04/04 01:58:15;;;;;;;1.70;1.30;;;11.50;99.90;;;;;;5036187;28;20452;-61
2024/04/04 02:00:41;;;;;;;2.00;1.80;;;11.50;99.90;;;;;;5036609;28;20453;-60
2024/04/04 02:03:08;;;;;;;3.00;2.20;;;11.50;99.90;;;;;;5035935;28;20448;-62
2024/04/04 02:05:35;;;;;;;1.93;1.73;;;11.50;99.90;;;;;;5026603;28;20322;-62
2024/04/04 02:08:02;;;;;;;2.07;1.60;;;11.50;99.90;;;;;;5036010;28;20473;-61
2024/04/04 02:10:28;;;;;;;3.37;1.40;;;11.50;99.90;;;;;;5037316;28;20532;-61
2024/04/04 02:12:58;;;;;;;3.37;1.73;;;11.50;99.90;;;;;;5038009;28;20539;-61
2024/04/04 02:15:26;;;;;;;2.70;1.37;;;11.50;99.90;;;;;;5036978;28;20229;-62
2024/04/04 02:17:55;;;;;;;2.17;1.50;;;11.50;99.90;;;;;;5038008;28;20802;-61
2024/04/04 02:20:22;;;;;;;2.23;1.73;;;11.60;99.90;;;;;;5037770;28;20447;-61
2024/04/04 02:22:50;;;;;;;1.50;1.30;;;11.50;99.90;;;;;;5036243;28;20449;-62
2024/04/04 02:25:17;;;;;;;3.67;2.27;;;11.50;99.90;;;;;;5035900;28;20500;-61
2024/04/04 02:27:44;;;;;;;2.13;1.90;;;11.50;99.90;;;;;;5035520;28;20515;-62
2024/04/04 02:30:10;;;;;;;2.77;2.33;;;11.50;99.90;;;;;;5035583;28;20452;-61
2024/04/04 02:32:40;;;;;;;2.50;1.80;;;11.50;99.90;;;;;;5034626;28;20437;-62
2024/04/04 02:37:42;;;;;;;2.80;1.97;;;11.40;99.90;;;;;;5054405;23;20491;-62
2024/04/04 02:40:09;;;;;;;2.47;2.00;;;11.40;99.90;;;;;;5042179;28;20470;-61
2024/04/04 02:42:36;;;;;;;2.20;1.97;;;11.50;99.90;;;;;;5035604;28;20940;-60
2024/04/04 02:45:02;;;;;;;2.30;1.93;;;11.50;99.90;;;;;;5043157;28;20551;-60
2024/04/04 02:47:29;;;;;;;1.60;1.50;;;11.50;99.90;;;;;;5037364;28;20452;-61
2024/04/04 02:49:57;;;;;;;5.70;2.80;;;11.50;99.90;;;;;;5037245;28;20445;-62
2024/04/04 02:52:24;;;;;;;3.27;2.40;;;11.50;99.90;;;;;;5035211;28;20484;-62
2024/04/04 02:54:50;;;;;;;4.30;2.37;;;11.40;99.90;;;;;;5038057;28;20484;-61
2024/04/04 02:57:17;;;;;;;4.23;2.13;;;11.40;99.90;;;;;;5041513;28;20449;-61
2024/04/04 02:59:43;;;;;;;3.60;2.67;;;11.40;99.90;;;;;;5041990;28;20742;-62
2024/04/04 03:02:10;;;;;;;3.10;2.50;;;11.40;99.90;;;;;;5050670;28;20535;-60
2024/04/04 03:04:36;;;;;;;2.93;2.70;;;11.40;99.90;;;;;;5040144;28;20496;-61
2024/04/04 03:07:05;;;;;;;2.87;2.27;;;11.40;99.90;;;;;;5033256;28;20453;-61
2024/04/04 03:09:31;;;;;;;3.00;2.70;;;11.40;99.90;;;;;;5033340;28;21001;-61
2024/04/04 03:11:58;;;;;;;4.50;2.40;;;11.40;99.90;;;;;;5034533;28;20445;-61
2024/04/04 03:14:24;;;;;;;4.20;2.37;;;11.30;99.90;;;;;;5035791;28;20503;-61
2024/04/04 03:16:51;;;;;;;5.20;2.20;;;11.40;99.90;;;;;;5036299;28;20440;-61
2024/04/04 03:19:17;;;;;;;2.60;2.17;;;11.40;99.90;;;;;;5036944;28;20468;-62
2024/04/04 03:21:44;;;;;;;3.00;2.30;;;11.30;99.90;;;;;;5037631;28;20471;-61
2024/04/04 03:24:12;;;;;;;2.77;2.07;;;11.30;99.90;;;;;;5037371;28;20464;-62
2024/04/04 03:26:38;;;;;;;3.53;2.30;;;11.40;99.90;;;;;;5043033;28;20451;-62
2024/04/04 03:29:04;;;;;;;4.87;2.60;;;11.30;99.90;;;;;;5038652;28;20915;-62
2024/04/04 03:31:31;;;;;;;3.00;2.70;;;11.30;99.90;;;;;;5035384;28;20499;-62
2024/04/04 03:33:57;;;;;;;3.03;1.97;;;11.30;99.90;;;;;;5039927;28;20488;-62
2024/04/04 03:36:24;;;;;;;3.63;2.40;;;11.20;99.90;;;;;;5040763;28;20526;-62
2024/04/04 03:38:51;;;;;;;2.57;2.37;;;11.20;99.90;;;;;;5041893;28;20535;-62
2024/04/04 03:41:20;;;;;;;6.63;2.43;;;11.10;99.90;;;;;;5039873;28;20445;-62
2024/04/04 03:43:50;;;;;;;4.20;2.73;;;11.10;99.90;;;;;;5040206;28;21287;-58
2024/04/04 03:46:15;;;;;;;3.60;2.30;;;11.10;99.90;;;;;;5044587;28;20639;-61
2024/04/04 03:48:43;;;;;;;3.03;2.40;;;11.10;99.90;;;;;;5039249;28;20590;-61
2024/04/04 03:51:09;;;;;;;3.20;2.67;;;11.10;99.90;;;;;;5035505;28;20198;-62
2024/04/04 03:53:36;;;;;;;4.07;2.60;;;11.10;99.90;;;;;;5036468;28;21032;-62
2024/04/04 03:56:02;;;;;;;3.60;2.80;;;11.10;99.90;;;;;;5041541;28;20264;-61
2024/04/04 03:58:30;;;;;;;5.53;3.00;;;11.10;99.90;;;;;;5048339;28;20942;-63
2024/04/04 04:00:56;;;;;;;2.93;2.50;;;11.10;99.90;;;;;;5055360;28;20440;-60
2024/04/04 04:03:23;;;;;;;2.90;2.70;;;11.10;99.90;;;;;;5053707;28;20876;-62
2024/04/04 04:05:50;;;;;;;3.00;2.50;;;11.00;99.90;;;;;;5046468;28;20439;-61
2024/04/04 04:08:17;;;;;;;4.23;3.13;;;11.00;99.90;;;;;;5039136;28;21153;-60
2024/04/04 04:10:43;;;;;;;3.70;3.27;;;10.90;99.90;;;;;;5050280;28;20487;-61
2024/04/04 04:13:10;;;;;;;3.80;3.10;;;10.90;99.90;;;;;;5052727;28;20472;-61
2024/04/04 04:15:38;;;;;;;2.90;2.63;;;10.90;99.90;;;;;;5043251;28;20852;-61
2024/04/04 04:18:05;;;;;;;4.03;2.80;;;10.90;99.90;;;;;;5042235;28;20469;-61
2024/04/04 04:23:16;;;;;;;5.87;3.93;;;10.80;99.90;;;;;;5047605;28;20555;-61
2024/04/04 04:25:42;;;;;;;4.77;3.43;;;10.90;99.90;;;;;;5046433;28;20443;-64
2024/04/04 04:28:09;;;;;;;3.80;3.40;;;10.90;99.90;;;;;;5044015;28;20927;-60
2024/04/04 04:30:35;;;;;;;3.10;2.73;;;11.00;99.90;;;;;;5043496;28;20483;-61
2024/04/04 04:33:03;;;;;;;3.87;3.00;;;11.00;99.90;;;;;;5047229;28;20467;-62
2024/04/04 04:35:29;;;;;;;3.50;3.00;;;11.00;99.90;;;;;;5041729;28;20547;-62
2024/04/04 04:37:56;;;;;;;3.70;2.80;;;11.10;99.90;;;;;;5038248;28;20504;-64
2024/04/04 04:40:22;;;;;;;4.60;2.53;;;11.10;99.90;;;;;;5038828;28;20532;-62
2024/04/04 04:42:49;;;;;;;3.83;2.50;;;11.10;99.90;;;;;;5039364;28;20485;-61
2024/04/04 04:45:16;;;;;;;3.43;2.40;;;11.10;99.90;;;;;;5039597;28;20473;-62
2024/04/04 04:47:43;;;;;;;4.17;2.40;;;11.10;99.90;;;;;;5040126;28;20440;-60
2024/04/04 04:50:11;;;;;;;3.27;2.97;;;11.20;99.90;;;;;;5038116;28;20500;-61
2024/04/04 04:52:37;;;;;;;4.13;2.40;;;11.20;99.90;;;;;;5038198;28;20480;-61
2024/04/04 04:55:05;;;;;;;2.40;2.20;;;11.30;99.90;;;;;;5036575;28;20460;-62
2024/04/04 04:57:32;;;;;;;5.13;2.60;;;11.30;99.90;;;;;;5038388;28;20452;-62
2024/04/04 04:59:58;;;;;;;4.47;2.97;;;11.30;99.90;;;;;;5037297;28;20468;-62
2024/04/04 05:02:25;;;;;;;5.80;2.30;;;11.30;99.90;;;;;;5038005;28;20444;-61
2024/04/04 05:04:51;;;;;;;3.77;2.63;;;11.30;99.90;;;;;;5036962;28;20492;-62
2024/04/04 05:07:19;;;;;;;2.47;2.10;;;11.30;99.90;;;;;;5037225;28;20849;-61
2024/04/04 05:09:45;;;;;;;4.07;3.43;;;11.30;99.90;;;;;;5036753;28;20652;-61
2024/04/04 05:12:12;;;;;;;4.53;3.20;;;11.30;99.90;;;;;;5037415;28;20480;-61
2024/04/04 05:14:38;;;;;;;3.30;2.60;;;11.30;99.90;;;;;;5036981;28;20622;-61
2024/04/04 05:17:05;;;;;;;3.63;2.87;;;11.30;99.90;;;;;;5036656;28;20502;-60
2024/04/04 05:19:31;;;;;;;2.70;2.20;;;11.30;99.90;;;;;;5037506;28;20237;-61
2024/04/04 05:21:58;;;;;;;3.27;2.30;;;11.20;99.90;;;;;;5036573;28;20433;-61
2024/04/04 05:24:25;;;;;;;3.53;3.10;;;11.20;99.90;;;;;;5036394;28;20520;-60
2024/04/04 05:26:52;;;;;;;4.50;2.97;;;11.30;99.90;;;;;;5036768;28;20510;-58
2024/04/04 05:29:18;;;;;;;2.23;2.00;;;11.30;99.90;;;;;;5035985;28;20488;-60
2024/04/04 05:31:45;;;;;;;3.37;2.80;;;11.30;99.90;;;;;;5036382;28;20448;-61
2024/04/04 05:34:12;;;;;;;7.17;2.70;;;11.30;99.90;;;;;;5034593;28;20984;-62
2024/04/04 05:36:39;;;;;;;5.03;2.80;;;11.30;99.90;;;;;;5040473;28;20852;-62
2024/04/04 05:39:07;;;;;;;3.70;2.80;;;11.30;99.90;;;;;;5039419;28;20516;-61
2024/04/04 05:41:36;;;;;;;4.33;2.50;;;11.40;99.90;;;;;;5043318;28;20440;-61
2024/04/04 05:44:02;;;;;;;2.70;2.43;;;11.40;99.90;;;;;;5038622;28;20539;-62
2024/04/04 05:46:28;;;;;;;3.60;2.40;;;11.40;99.90;;;;;;5045415;28;20853;-59
2024/04/04 05:48:54;;;;;;;5.83;3.33;;;11.40;99.90;;;;;;5041489;28;20217;-60
2024/04/04 05:51:21;;;;;;;3.50;2.37;;;11.40;99.90;;;;;;5042630;28;20502;-62
2024/04/04 05:53:47;;;;;;;9.50;2.60;;;11.40;99.90;;;;;;5041917;28;20308;-61
2024/04/04 05:56:14;;;;;;;3.70;1.97;;;11.50;99.90;;;;;;5045212;28;20629;-61
2024/04/04 05:58:41;;;;;;;2.40;2.20;;;11.50;99.90;;;;;;5042512;28;20464;-62
2024/04/04 06:01:08;;;;;;;7.43;2.60;;;11.50;99.90;;;;;;5045169;28;20451;-62
2024/04/04 06:03:34;;;;;;;5.27;3.40;;;11.60;99.90;;;;;;5045099;28;20893;-61
2024/04/04 06:06:02;;;;;;;2.80;2.20;;;11.60;99.90;;;;;;5037852;28;20475;-61
2024/04/04 06:08:27;;;;;;;6.10;2.90;;;11.70;99.90;;;;;;5035192;28;20448;-63
2024/04/04 06:10:55;;;;;;;2.57;1.90;;;11.80;99.90;;;;;;5036360;28;20447;-62
2024/04/04 06:13:20;;;;;;;3.03;2.27;;;11.80;99.90;;;;;;5032857;28;20207;-61
2024/04/04 06:15:54;;;;;;;2.90;2.23;;;11.90;99.90;;;;;;5040393;28;20432;-62
2024/04/04 06:18:22;;;;;;;2.90;2.30;;;11.90;99.90;;;;;;5044112;28;20520;-62
2024/04/04 06:20:49;;;;;;;4.60;1.87;;;12.00;99.90;;;;;;5044481;28;20467;-62
2024/04/04 06:23:15;;;;;;;5.73;2.40;;;12.00;99.90;;;;;;5039338;28;20448;-62
2024/04/04 06:25:42;;;;;;;6.43;2.20;;;12.00;99.90;;;;;;5043447;28;20436;-62
2024/04/04 06:28:08;;;;;;;2.87;2.30;;;12.10;99.90;;;;;;5041058;28;20936;-62
2024/04/04 06:30:36;;;;;;;3.63;2.30;;;12.10;99.90;;;;;;5041470;28;20559;-62
2024/04/04 06:33:05;;;;;;;3.97;2.50;;;12.00;99.90;;;;;;5043402;28;20472;-63
2024/04/04 06:35:31;;;;;;;3.53;2.67;;;12.00;99.90;;;;;;5036439;28;20468;-64
2024/04/04 06:37:57;;;;;;;8.43;2.63;;;12.00;99.90;;;;;;5035802;28;20542;-60
2024/04/04 06:40:24;;;;;;;4.10;2.30;;;12.00;99.90;;;;;;5034955;28;20436;-60
2024/04/04 06:42:50;;;;;;;3.37;2.57;;;11.90;99.90;;;;;;5037830;28;20439;-61
2024/04/04 06:45:17;;;;;;;2.50;2.23;;;12.00;99.90;;;;;;5034638;28;20475;-61
2024/04/04 06:47:54;;;;;;;2.53;2.33;;;12.00;99.90;;;;;;5037931;28;20228;-63
2024/04/04 06:50:26;;;;;;;3.80;1.80;;;12.10;99.90;;;;;;5033077;28;20470;-63
2024/04/04 06:52:52;;;;;;;3.77;2.53;;;12.10;99.90;;;;;;5040928;28;20452;-63
2024/04/04 06:55:19;;;;;;;4.13;2.30;;;12.10;99.90;;;;;;5036146;28;20886;-61
2024/04/04 06:57:46;;;;;;;2.20;1.93;;;12.20;99.90;;;;;;5037763;28;20510;-61
2024/04/04 07:00:14;;;;;;;4.83;2.37;;;12.30;99.90;;;;;;5035233;28;20445;-60
2024/04/04 07:02:40;;;;;;;2.57;2.37;;;12.30;99.90;;;;;;5035479;28;20480;-64
2024/04/04 07:05:07;;;;;;;3.30;1.93;;;12.20;99.90;;;;;;5040718;28;20502;-62
2024/04/04 07:07:34;;;;;;;2.20;2.00;;;12.40;99.90;;;;;;5038861;28;20535;-62
2024/04/04 07:10:03;;;;;;;7.50;2.57;;;12.40;99.90;;;;;;5038134;28;20568;-63
2024/04/04 07:12:29;;;;;;;3.20;2.00;;;12.50;99.90;;;;;;5036900;28;20655;-62
2024/04/04 07:14:56;;;;;;;5.30;2.30;;;12.50;99.90;;;;;;5036346;28;20527;-61
2024/04/04 07:17:22;;;;;;;2.30;2.10;;;12.60;99.90;;;;;;5036505;28;20207;-61
2024/04/04 07:19:53;;;;;;;5.60;2.20;;;12.60;99.90;;;;;;5036530;28;20432;-61
2024/04/04 07:22:19;;;;;;;3.23;2.17;;;12.70;99.90;;;;;;5034935;28;20498;-64
2024/04/04 07:24:48;;;;;;;5.17;2.30;;;12.70;99.90;;;;;;5036602;28;20991;-62
2024/04/04 07:27:14;;;;;;;5.50;2.70;;;12.80;99.90;;;;;;5036459;28;20455;-60
2024/04/04 07:29:45;;;;;;;6.27;3.10;;;12.80;99.90;;;;;;5033518;28;21047;-63
2024/04/04 07:32:11;;;;;;;2.67;2.43;;;12.90;99.90;;;;;;5039196;28;20855;-63
2024/04/04 07:34:38;;;;;;;6.03;2.07;;;13.00;99.90;;;;;;5038264;28;20499;-63
2024/04/04 07:37:04;;;;;;;4.23;2.00;;;13.10;99.90;;;;;;5038568;28;20511;-63
2024/04/04 07:39:33;;;;;;;3.13;2.10;;;13.10;99.90;;;;;;5037184;28;20444;-62
2024/04/04 07:42:00;;;;;;;5.37;2.87;;;13.20;99.90;;;;;;5041003;28;20449;-60
2024/04/04 07:44:28;;;;;;;2.17;1.77;;;13.20;99.90;;;;;;5040812;28;20506;-62
2024/04/04 07:46:54;;;;;;;3.10;2.37;;;13.30;99.90;;;;;;5044595;28;20457;-61
2024/04/04 07:49:21;;;;;;;2.27;1.60;;;13.40;99.90;;;;;;5041151;28;21074;-63
2024/04/04 07:51:47;;;;;;;4.10;2.13;;;13.50;99.90;;;;;;5040874;28;20512;-62
2024/04/04 07:54:14;;;;;;;3.50;2.03;;;13.60;99.90;;;;;;5039357;28;20458;-60
2024/04/04 07:56:41;;;;;;;3.37;1.83;;;13.60;99.90;;;;;;5035363;28;20440;-63
2024/04/04 07:59:09;;;;;;;3.33;1.90;;;13.70;99.90;;;;;;5039268;28;20436;-63
2024/04/04 08:01:35;;;;;;;2.80;1.67;;;13.80;99.90;;;;;;5039187;28;20487;-63
2024/04/04 08:04:05;;;;;;;2.07;1.67;;;14.00;99.90;;;;;;5038810;28;20518;-61
2024/04/04 08:06:31;;;;;;;5.80;1.80;;;14.10;99.90;;;;;;5041287;28;20527;-62
2024/04/04 08:08:59;;;;;;;7.10;1.60;;;14.20;99.90;;;;;;5041460;28;20607;-63
2024/04/04 08:11:24;;;;;;;2.93;2.07;;;14.30;99.90;;;;;;5043729;28;20449;-63
2024/04/04 08:13:52;;;;;;;3.17;1.57;;;14.50;99.90;;;;;;5041585;28;20452;-61
2024/04/04 08:16:19;;;;;;;4.20;1.50;;;15.10;99.90;;;;;;5040600;28;20655;-62
2024/04/04 08:18:46;;;;;;;7.43;1.97;;;16.50;99.90;;;;;;5039022;28;20541;-62
2024/04/04 08:21:13;;;;;;;2.40;1.40;;;17.70;99.90;;;;;;5048861;28;20487;-63
2024/04/04 08:23:40;;;;;;;2.07;1.63;;;18.70;99.90;;;;;;5039602;28;20464;-62
2024/04/04 08:26:06;;;;;;;2.50;1.37;;;19.80;99.90;;;;;;5039626;28;20470;-59
2024/04/04 08:28:34;;;;;;;5.07;1.50;;;20.60;99.90;;;;;;5039835;28;20494;-62
2024/04/04 08:31:02;;;;;;;2.10;1.47;;;21.30;99.90;;;;;;5039483;28;20489;-62
2024/04/04 08:33:31;;;;;;;2.43;1.27;;;22.10;99.90;;;;;;5040217;28;20440;-60
2024/04/04 08:35:58;;;;;;;3.80;1.50;;;22.90;99.30;;;;;;5039549;28;20452;-60
2024/04/04 08:38:28;;;;;;;2.00;1.37;;;23.60;94.10;;;;;;5040285;28;20535;-62
2024/04/04 08:41:04;;;;;;;1.20;1.10;;;24.20;91.90;;;;;;5040299;28;20453;-63
2024/04/04 08:43:31;;;;;;;2.40;1.50;;;24.70;84.60;;;;;;5031887;28;20425;-61
2024/04/04 08:46:01;;;;;;;3.33;1.53;;;25.10;79.50;;;;;;5037958;28;20524;-62
2024/04/04 08:48:31;;;;;;;2.10;1.50;;;24.50;78.40;;;;;;5039047;28;20440;-62
2024/04/04 08:50:57;;;;;;;1.93;1.10;;;23.90;79.20;;;;;;5041273;28;20507;-62
2024/04/04 08:53:25;;;;;;;2.90;1.53;;;23.50;79.50;;;;;;5040833;28;20821;-60
2024/04/04 08:55:54;;;;;;;1.77;1.30;;;22.90;82.00;;;;;;5039934;28;20447;-61
2024/04/04 08:58:22;;;;;;;1.60;1.33;;;22.40;85.20;;;;;;5039698;28;20449;-63
2024/04/04 09:00:49;;;;;;;5.33;1.30;;;21.90;87.30;;;;;;5039763;28;20801;-61
2024/04/04 09:03:17;;;;;;;2.20;1.20;;;21.20;90.00;;;;;;5037802;28;20448;-60
2024/04/04 09:05:44;;;;;;;2.13;1.00;;;21.50;91.50;;;;;;5039246;28;20476;-64
2024/04/04 09:08:13;;;;;;;5.23;1.43;;;21.50;90.00;;;;;;5039565;28;20444;-63
2024/04/04 09:10:39;;;;;;;3.00;1.53;;;21.40;90.90;;;;;;5039458;28;20484;-63
2024/04/04 09:13:07;;;;;;;2.20;1.33;;;21.90;89.50;;;;;;5039870;28;20437;-61
2024/04/04 09:15:36;;;;;;;1.70;1.33;;;22.00;87.60;;;;;;5038636;28;20472;-63
2024/04/04 09:18:04;;;;;;;2.30;1.37;;;22.20;87.20;;;;;;5038578;28;20456;-62
2024/04/04 09:20:31;;;;;;;2.13;1.53;;;22.60;84.90;;;;;;5038306;28;20444;-61
2024/04/04 09:23:01;;;;;;;2.83;1.87;;;22.70;83.80;;;;;;5038019;28;20444;-63
2024/04/04 09:25:28;;;;;;;2.30;1.27;;;22.10;84.70;;;;;;5035609;28;20523;-63
2024/04/04 09:27:56;;;;;;;2.80;1.33;;;21.30;85.60;;;;;;5035705;28;20483;-62
2024/04/04 09:30:24;;;;;;;2.60;1.30;;;20.70;87.30;;;;;;5037253;28;21008;-61
2024/04/04 09:32:53;;;;;;;1.47;0.80;;;20.40;89.30;;;;;;5038299;28;20455;-62
2024/04/04 09:35:20;;;;;;;3.00;1.13;;;20.90;89.40;;;;;;5038306;28;20532;-61
2024/04/04 09:37:46;;;;;;;1.50;1.30;;;21.30;86.20;;;;;;5040000;28;20453;-60
2024/04/04 09:40:16;;;;;;;4.90;1.60;;;21.60;87.30;;;;;;5041472;28;20465;-62
2024/04/04 09:42:43;;;;;;;2.60;1.50;;;21.70;82.10;;;;;;5042402;28;20937;-60
2024/04/04 09:45:10;;;;;;;1.90;1.43;;;21.20;81.90;;;;;;5042855;28;20472;-60
2024/04/04 09:47:41;;;;;;;1.83;1.00;;;20.60;84.90;;;;;;5040606;28;20533;-57
2024/04/04 09:50:09;;;;;;;1.77;1.10;;;19.70;87.10;;;;;;5040084;28;20534;-62
2024/04/04 09:52:37;;;;;;;5.60;1.20;;;19.20;90.20;;;;;;5038684;28;20448;-63
2024/04/04 09:55:06;;;;;;;2.33;1.17;;;18.70;91.30;;;;;;5038655;28;20469;-63
2024/04/04 09:57:34;;;;;;;2.30;1.40;;;18.40;93.10;;;;;;5038127;28;20504;-62
2024/04/04 10:00:15;;;;;;;4.03;1.83;;;18.00;93.70;;;;;;5051346;28;20592;-62
2024/04/04 10:02:47;;;;;;;1.40;1.30;;;17.50;95.80;;;;;;5032320;28;20436;-63
2024/04/04 10:05:19;;;;;;;2.93;1.03;;;17.20;97.50;;;;;;5037264;28;20456;-62
2024/04/04 10:07:47;;;;;;;2.33;1.20;;;16.70;97.80;;;;;;5037735;28;20471;-62
2024/04/04 10:10:16;;;;;;;1.53;1.30;;;16.50;99.70;;;;;;5037563;28;20468;-63
2024/04/04 10:12:50;;;;;;;2.57;1.23;;;16.30;99.90;;;;;;5042644;28;20448;-62
2024/04/04 10:15:18;;;;;;;3.90;1.40;;;16.20;99.90;;;;;;5036249;28;20461;-62
2024/04/04 10:17:45;;;;;;;2.17;0.93;;;16.10;99.90;;;;;;5040356;28;20480;-60
2024/04/04 10:20:12;;;;;;;4.40;1.20;;;15.90;99.90;;;;;;5037389;28;20437;-60
2024/04/04 10:22:38;;;;;;;1.83;1.10;;;15.80;99.90;;;;;;5038705;28;20814;-61
2024/04/04 10:25:05;;;;;;;1.27;0.80;;;15.70;99.90;;;;;;5039773;28;20467;-63
2024/04/04 10:27:31;;;;;;;1.83;1.20;;;15.70;99.90;;;;;;5038096;28;20502;-61
2024/04/04 10:30:00;;;;;;;1.63;0.90;;;15.70;99.90;;;;;;5035974;28;20981;-62
2024/04/04 10:32:30;;;;;;;1.90;1.23;;;15.80;99.90;;;;;;5027776;28;20217;-62
2024/04/04 10:35:01;;;;;;;1.90;0.93;;;16.00;99.90;;;;;;5036959;28;20453;-62
2024/04/04 10:37:28;;;;;;;3.90;1.07;;;16.10;99.90;;;;;;5036523;28;20455;-61
2024/04/04 10:39:54;;;;;;;2.07;1.00;;;16.20;99.90;;;;;;5037646;28;20444;-61
2024/04/04 10:42:22;;;;;;;2.57;1.23;;;16.30;99.90;;;;;;5037518;28;20448;-61
2024/04/04 10:44:51;;;;;;;1.27;0.90;;;16.20;99.90;;;;;;5042496;28;20558;-61
2024/04/04 10:47:19;;;;;;;1.70;1.00;;;16.20;99.90;;;;;;5039435;28;20432;-63
2024/04/04 10:49:46;;;;;;;4.50;1.30;;;16.20;99.90;;;;;;5036863;28;20480;-63
2024/04/04 10:52:13;;;;;;;3.77;1.60;;;16.00;99.90;;;;;;5036813;28;20798;-63
2024/04/04 10:54:40;;;;;;;3.00;1.50;;;15.70;99.90;;;;;;5037586;28;20461;-61
2024/04/04 10:57:07;;;;;;;3.73;1.13;;;15.50;99.90;;;;;;5038096;28;20436;-62
2024/04/04 10:59:34;;;;;;;1.80;1.40;;;15.30;99.90;;;;;;5037502;28;20452;-61
2024/04/04 11:02:04;;;;;;;3.40;1.53;;;15.20;99.90;;;;;;5037935;28;20432;-62
2024/04/04 11:04:40;;;;;;;2.43;1.40;;;15.10;99.90;;;;;;5038476;28;20473;-64
2024/04/04 11:07:07;;;;;;;4.23;1.50;;;14.90;99.90;;;;;;5046345;28;20578;-62
2024/04/04 11:09:36;;;;;;;9.00;1.80;;;14.70;99.90;;;;;;5039236;28;20478;-63
2024/04/04 11:12:03;;;;;;;4.10;2.30;;;14.50;99.90;;;;;;5036584;28;20487;-65
2024/04/04 11:14:30;;;;;;;9.70;4.57;;;14.30;99.90;;;;;;5034343;28;20943;-62
2024/04/04 11:16:57;;;;;;;14.27;6.13;;;14.20;99.90;;;;;;5036371;28;20472;-62
2024/04/04 11:19:24;;;;;;;3.90;1.87;;;14.10;99.90;;;;;;5040957;28;20464;-62
2024/04/04 11:21:52;;;;;;;6.20;1.70;;;14.00;99.90;;;;;;5038376;28;20456;-62
2024/04/04 11:24:22;;;;;;;8.90;2.77;;;14.00;99.90;;;;;;5041602;28;20883;-63
2024/04/04 11:26:48;;;;;;;3.63;1.50;;;14.00;99.90;;;;;;5041319;28;20855;-62
2024/04/04 11:29:15;;;;;;;9.30;1.63;;;13.90;99.90;;;;;;5032716;28;20472;-60
2024/04/04 11:31:41;;;;;;;3.50;1.87;;;13.90;99.90;;;;;;5036110;28;20456;-61
2024/04/04 11:34:08;;;;;;;3.33;2.20;;;13.90;99.90;;;;;;5041333;28;21273;-64
2024/04/04 11:36:34;;;;;;;2.43;1.70;;;13.80;99.90;;;;;;5042147;28;20549;-60
2024/04/04 11:39:03;;;;;;;8.60;1.90;;;13.80;99.90;;;;;;5051281;28;20472;-62
2024/04/04 11:41:29;;;;;;;2.07;1.50;;;13.80;99.90;;;;;;5035066;28;20502;-63
2024/04/04 11:43:56;;;;;;;4.60;1.80;;;13.70;99.90;;;;;;5053306;28;20513;-61
2024/04/04 11:46:23;;;;;;;2.93;1.80;;;13.70;99.90;;;;;;5055238;28;20483;-61
2024/04/04 11:48:50;;;;;;;2.63;2.23;;;13.70;99.90;;;;;;5055619;28;20440;-62
2024/04/04 11:51:15;;;;;;;2.20;1.90;;;13.70;99.90;;;;;;5042363;28;20520;-63
2024/04/04 11:56:19;;;;;;;2.13;1.70;;;13.90;99.90;;;;;;4659142;26;20481;-62
2024/04/04 11:58:45;;;;;;;2.57;1.77;;;14.10;99.90;;;;;;5014989;28;20450;-60
2024/04/04 12:01:12;;;;;;;8.77;2.73;;;14.20;99.90;;;;;;5018503;28;20487;-62
2024/04/04 12:03:38;;;;;;;2.23;1.63;;;14.30;99.90;;;;;;5018004;28;20492;-62
2024/04/04 12:06:06;;;;;;;5.47;1.90;;;14.40;99.90;;;;;;5028248;28;20919;-63
2024/04/04 12:08:32;;;;;;;2.93;1.60;;;14.40;99.90;;;;;;5030135;28;20428;-62
2024/04/04 12:11:02;;;;;;;2.43;1.87;;;14.40;99.90;;;;;;5031222;28;20476;-63
2024/04/04 12:13:45;;;;;;;11.10;1.87;;;14.30;99.90;;;;;;5013862;28;20453;-62
2024/04/04 12:16:12;;;;;;;7.30;1.80;;;14.30;99.90;;;;;;5024680;28;20449;-60
2024/04/04 12:21:23;;;;;;;3.83;2.33;;;14.30;99.90;;;;;;4994559;28;20469;-62
2024/04/04 12:23:50;;;;;;;3.83;1.97;;;14.30;99.90;;;;;;5027435;28;20463;-61
2024/04/04 12:26:18;;;;;;;2.50;1.77;;;14.30;99.90;;;;;;5016057;28;20445;-61
2024/04/04 12:28:48;;;;;;;4.03;2.40;;;14.20;99.90;;;;;;5019160;28;20507;-63
2024/04/04 12:31:15;;;;;;;2.67;1.60;;;14.20;99.90;;;;;;5030597;28;20502;-63
2024/04/04 12:33:41;;;;;;;4.00;1.50;;;14.10;99.90;;;;;;5020992;28;20465;-64
2024/04/04 12:36:10;;;;;;;2.00;1.80;;;14.10;99.90;;;;;;5016571;28;20541;-62
2024/04/04 12:38:41;;;;;;;9.13;1.73;;;14.10;99.90;;;;;;5017110;28;20857;-63
2024/04/04 12:41:17;;;;;;;4.93;2.33;;;14.10;99.90;;;;;;5018218;28;20446;-65
2024/04/04 12:43:50;;;;;;;4.80;2.20;;;13.90;99.90;;;;;;5020015;28;20515;-65
2024/04/04 12:46:19;;;;;;;3.90;2.30;;;13.90;99.90;;;;;;5021472;28;20518;-64
2024/04/04 12:48:46;;;;;;;4.50;2.13;;;13.80;99.90;;;;;;5021709;28;20449;-64
2024/04/04 12:51:13;;;;;;;5.93;2.10;;;13.80;99.90;;;;;;5023129;28;20504;-65
2024/04/04 12:53:39;;;;;;;3.80;2.17;;;13.70;99.90;;;;;;5037344;28;20461;-64
2024/04/04 12:56:07;;;;;;;2.80;2.27;;;13.60;99.90;;;;;;5039061;28;20455;-64
2024/04/04 12:58:33;;;;;;;4.13;2.77;;;13.50;99.90;;;;;;5020636;28;20473;-65
2024/04/04 13:01:01;;;;;;;4.00;2.77;;;13.50;99.90;;;;;;5019754;28;20442;-64
2024/04/04 13:03:27;;;;;;;3.77;2.67;;;13.40;99.90;;;;;;5023091;28;20473;-63
2024/04/04 13:05:55;;;;;;;2.73;2.40;;;13.40;99.90;;;;;;5029873;28;20979;-64